Airport View

Enter AWOS ICAO identifier for current METAR.

ex. KFNL

KJGG 210015Z AUTO 00000KT 10SM CLR 18/16 A3026 RMK AO1

21 Sep 2019 00:24

Frequency: 120.625

Phone: 757-220-8810

Other Area AWOS: KFAF - KPHF - KFYJ - KLFI

TAF KFAF 201800Z 2018/2124 VRB06KT 9999 FEW040 QNH3024INS TX27/2118Z TN16/2109Z LAST NO AMDS AFT 2103 NEXT 2310